SDM907 UIII-UNNT
Flight info
| Callsign | SDM907 |
|---|---|
| Flight time | 1h 45m |
| Altitude | 38000 |
| Route | BOGRA A815 TUTEK M97 LIBZI R497 LONKA A822 LAPAK B151 KESED B926 NATIR |
| Aircraft | A20N/M-SDE2E3FGHIRWXY/LB1 |
Departure
| Time | 2026-04-27 11:46 |
|---|---|
| Airport | Irkutsk International Airport (UIII) |
Arrival
| Time | 2026-04-27 13:31 |
|---|---|
| Airport | Novosibirsk Tolmachevo Airport (UNNT) |
| Time | Latitude | Longitude | Altitude | Speed | Heading |
|---|---|---|---|---|---|
| 2026-04-27 11:22 | 52.27225 | 104.36324 | 1584 ft | 0 kts | 20° |
| 2026-04-27 11:35 | 52.27206 | 104.36313 | 1584 ft | 3 kts | 20° |
| 2026-04-27 11:35 | 52.27186 | 104.36298 | 1584 ft | 3 kts | 52° |
| 2026-04-27 11:35 | 52.27179 | 104.36272 | 1584 ft | 1 kts | 93° |
| 2026-04-27 11:36 | 52.27179 | 104.36271 | 1584 ft | 0 kts | 94° |
| 2026-04-27 11:40 | 52.27179 | 104.36274 | 1584 ft | 1 kts | 94° |
| 2026-04-27 11:40 | 52.27175 | 104.36303 | 1584 ft | 4 kts | 105° |
| 2026-04-27 11:41 | 52.27164 | 104.36360 | 1584 ft | 6 kts | 109° |
| 2026-04-27 11:41 | 52.27146 | 104.36443 | 1584 ft | 9 kts | 110° |
| 2026-04-27 11:41 | 52.27121 | 104.36548 | 1584 ft | 11 kts | 110° |
| 2026-04-27 11:41 | 52.27092 | 104.36675 | 1584 ft | 13 kts | 110° |
| 2026-04-27 11:42 | 52.27061 | 104.36810 | 1587 ft | 12 kts | 110° |
| 2026-04-27 11:42 | 52.27032 | 104.36939 | 1590 ft | 12 kts | 110° |
| 2026-04-27 11:42 | 52.27005 | 104.37060 | 1592 ft | 11 kts | 110° |
| 2026-04-27 11:42 | 52.26989 | 104.37178 | 1595 ft | 10 kts | 81° |
| 2026-04-27 11:43 | 52.27026 | 104.37279 | 1596 ft | 11 kts | 54° |
| 2026-04-27 11:43 | 52.27073 | 104.37384 | 1598 ft | 12 kts | 54° |
| 2026-04-27 11:43 | 52.27102 | 104.37451 | 1599 ft | 0 kts | 54° |
| 2026-04-27 11:43 | 52.27104 | 104.37457 | 1599 ft | 1 kts | 54° |
| 2026-04-27 11:44 | 52.27116 | 104.37484 | 1599 ft | 5 kts | 54° |
| 2026-04-27 11:44 | 52.27144 | 104.37547 | 1600 ft | 8 kts | 53° |
| 2026-04-27 11:44 | 52.27183 | 104.37619 | 1605 ft | 9 kts | 56° |
| 2026-04-27 11:44 | 52.27183 | 104.37712 | 1612 ft | 8 kts | 109° |
| 2026-04-27 11:45 | 52.27131 | 104.37915 | 1609 ft | 45 kts | 115° |
| 2026-04-27 11:45 | 52.27007 | 104.38371 | 1617 ft | 86 kts | 113° |
| 2026-04-27 11:45 | 52.26571 | 104.40001 | 1657 ft | 145 kts | 113° |
| 2026-04-27 11:45 | 52.26155 | 104.41554 | 2043 ft | 151 kts | 115° |
| 2026-04-27 11:46 | 52.25693 | 104.43134 | 2687 ft | 154 kts | 119° |
| 2026-04-27 11:46 | 52.25275 | 104.44664 | 3509 ft | 145 kts | 117° |
| 2026-04-27 11:46 | 52.24866 | 104.46297 | 3923 ft | 166 kts | 117° |
| 2026-04-27 11:46 | 52.24393 | 104.48151 | 4380 ft | 187 kts | 116° |
| 2026-04-27 11:47 | 52.23857 | 104.50226 | 4826 ft | 210 kts | 116° |
| 2026-04-27 11:47 | 52.23259 | 104.52541 | 5179 ft | 235 kts | 112° |
| 2026-04-27 11:47 | 52.23030 | 104.55286 | 5759 ft | 252 kts | 85° |
| 2026-04-27 11:47 | 52.23641 | 104.57978 | 6541 ft | 260 kts | 54° |
| 2026-04-27 11:48 | 52.24984 | 104.59884 | 7387 ft | 256 kts | 24° |
| 2026-04-27 11:48 | 52.26737 | 104.60569 | 7964 ft | 269 kts | 357° |
| 2026-04-27 11:48 | 52.28554 | 104.59790 | 8697 ft | 273 kts | 329° |
| 2026-04-27 11:48 | 52.29992 | 104.57882 | 9720 ft | 272 kts | 317° |
| 2026-04-27 11:49 | 52.31378 | 104.55734 | 10505 ft | 280 kts | 319° |
| 2026-04-27 11:49 | 52.32951 | 104.53648 | 10827 ft | 303 kts | 324° |
| 2026-04-27 11:49 | 52.34769 | 104.51677 | 11140 ft | 323 kts | 329° |
| 2026-04-27 11:49 | 52.36735 | 104.49811 | 11844 ft | 329 kts | 331° |
| 2026-04-27 11:50 | 52.38748 | 104.47999 | 12663 ft | 332 kts | 332° |
| 2026-04-27 11:50 | 52.40794 | 104.46184 | 13458 ft | 336 kts | 332° |
| 2026-04-27 11:50 | 52.42858 | 104.44351 | 14210 ft | 339 kts | 332° |
| 2026-04-27 11:50 | 52.44945 | 104.42490 | 14894 ft | 343 kts | 332° |
| 2026-04-27 11:51 | 52.47042 | 104.40611 | 15588 ft | 347 kts | 332° |
| 2026-04-27 11:51 | 52.49170 | 104.38702 | 16263 ft | 351 kts | 332° |
| 2026-04-27 11:51 | 52.53464 | 104.34836 | 17586 ft | 358 kts | 332° |
| 2026-04-27 11:52 | 52.55659 | 104.32855 | 18243 ft | 362 kts | 332° |
| 2026-04-27 11:52 | 52.57875 | 104.30851 | 18829 ft | 365 kts | 332° |
| 2026-04-27 11:52 | 52.60107 | 104.28831 | 19422 ft | 368 kts | 332° |
| 2026-04-27 11:52 | 52.62358 | 104.26791 | 20010 ft | 371 kts | 332° |
| 2026-04-27 11:53 | 52.64967 | 104.23627 | 20709 ft | 377 kts | 315° |
| 2026-04-27 11:53 | 52.69586 | 104.15087 | 22061 ft | 386 kts | 313° |
| 2026-04-27 11:53 | 52.73193 | 104.08451 | 23174 ft | 392 kts | 313° |
| 2026-04-27 11:53 | 52.76849 | 104.01647 | 24164 ft | 398 kts | 313° |
| 2026-04-27 11:54 | 52.80518 | 103.94750 | 25107 ft | 402 kts | 313° |
| 2026-04-27 11:54 | 52.84226 | 103.87749 | 26011 ft | 407 kts | 313° |
| 2026-04-27 11:54 | 52.87970 | 103.80664 | 26836 ft | 411 kts | 313° |
| 2026-04-27 11:54 | 52.91706 | 103.73571 | 27621 ft | 416 kts | 313° |
| 2026-04-27 11:55 | 52.95568 | 103.66218 | 28398 ft | 420 kts | 313° |
| 2026-04-27 11:55 | 52.99369 | 103.58962 | 29104 ft | 424 kts | 313° |
| 2026-04-27 11:55 | 53.03244 | 103.51541 | 29776 ft | 428 kts | 313° |
| 2026-04-27 11:55 | 53.07164 | 103.44012 | 30418 ft | 431 kts | 313° |
| 2026-04-27 11:56 | 53.11091 | 103.36444 | 31069 ft | 433 kts | 313° |
| 2026-04-27 11:56 | 53.15010 | 103.28866 | 31862 ft | 430 kts | 314° |
| 2026-04-27 11:56 | 53.18888 | 103.21347 | 32737 ft | 425 kts | 314° |
| 2026-04-27 11:56 | 53.22716 | 103.13903 | 33545 ft | 421 kts | 314° |
| 2026-04-27 11:57 | 53.26503 | 103.06516 | 34288 ft | 417 kts | 315° |
| 2026-04-27 11:57 | 53.30269 | 102.99152 | 34775 ft | 417 kts | 314° |
| 2026-04-27 11:57 | 53.34035 | 102.91769 | 35209 ft | 417 kts | 314° |
| 2026-04-27 11:57 | 53.37794 | 102.84371 | 35662 ft | 417 kts | 314° |
| 2026-04-27 11:58 | 53.41542 | 102.76975 | 36069 ft | 417 kts | 314° |
| 2026-04-27 11:58 | 53.45244 | 102.69652 | 36467 ft | 417 kts | 314° |
| 2026-04-27 11:58 | 53.48985 | 102.62228 | 36843 ft | 417 kts | 314° |
| 2026-04-27 11:58 | 53.52727 | 102.54780 | 37198 ft | 417 kts | 313° |
| 2026-04-27 11:59 | 53.56462 | 102.47325 | 37525 ft | 416 kts | 313° |
| 2026-04-27 11:59 | 53.60183 | 102.39873 | 37850 ft | 416 kts | 313° |
| 2026-04-27 11:59 | 53.63773 | 102.32604 | 38099 ft | 417 kts | 310° |
| 2026-04-27 11:59 | 53.68857 | 102.14272 | 38124 ft | 427 kts | 285° |
| 2026-04-27 12:00 | 53.70014 | 102.03551 | 38071 ft | 427 kts | 284° |
| 2026-04-27 12:00 | 53.72322 | 101.83896 | 38090 ft | 427 kts | 285° |
| 2026-04-27 12:01 | 53.74689 | 101.64251 | 38080 ft | 427 kts | 285° |
| 2026-04-27 12:01 | 53.77020 | 101.44585 | 38079 ft | 426 kts | 285° |
| 2026-04-27 12:02 | 53.79318 | 101.24899 | 38068 ft | 426 kts | 285° |
| 2026-04-27 12:02 | 53.81580 | 101.05219 | 38057 ft | 426 kts | 285° |
| 2026-04-27 12:03 | 53.83792 | 100.85680 | 38051 ft | 425 kts | 284° |
| 2026-04-27 12:03 | 53.85988 | 100.65997 | 38036 ft | 425 kts | 284° |
| 2026-04-27 12:04 | 53.88147 | 100.46337 | 38037 ft | 424 kts | 284° |
| 2026-04-27 12:04 | 53.90268 | 100.26704 | 38032 ft | 423 kts | 283° |
| 2026-04-27 12:05 | 53.92354 | 100.07085 | 38021 ft | 422 kts | 283° |
| 2026-04-27 12:05 | 53.94404 | 99.87480 | 38015 ft | 422 kts | 283° |
| 2026-04-27 12:06 | 53.96412 | 99.67949 | 38175 ft | 423 kts | 283° |
| 2026-04-27 12:06 | 53.97411 | 99.58103 | 38472 ft | 423 kts | 283° |
| 2026-04-27 12:06 | 53.98225 | 99.50033 | 38678 ft | 423 kts | 283° |
| 2026-04-27 12:07 | 53.98718 | 99.45116 | 38843 ft | 421 kts | 282° |
| 2026-04-27 12:07 | 53.99262 | 99.39668 | 38981 ft | 421 kts | 282° |
| 2026-04-27 12:08 | 54.02903 | 99.02386 | 38987 ft | 422 kts | 282° |
| 2026-04-27 12:08 | 54.05818 | 98.78372 | 39011 ft | 417 kts | 298° |
| 2026-04-27 12:09 | 54.12125 | 98.61811 | 39017 ft | 416 kts | 301° |
| 2026-04-27 12:09 | 54.17882 | 98.44637 | 39015 ft | 416 kts | 300° |
| 2026-04-27 12:10 | 54.23115 | 98.27067 | 39025 ft | 417 kts | 289° |
| 2026-04-27 12:10 | 54.26736 | 98.08240 | 39028 ft | 416 kts | 289° |
| 2026-04-27 12:11 | 54.30324 | 97.89392 | 39023 ft | 416 kts | 288° |
| 2026-04-27 12:11 | 54.33865 | 97.70515 | 39028 ft | 416 kts | 288° |
| 2026-04-27 12:12 | 54.37358 | 97.51716 | 39038 ft | 416 kts | 288° |
| 2026-04-27 12:12 | 54.39171 | 97.41881 | 39037 ft | 416 kts | 288° |
| 2026-04-27 12:13 | 54.44078 | 97.14940 | 39040 ft | 416 kts | 287° |
| 2026-04-27 12:13 | 54.47507 | 96.95957 | 39050 ft | 416 kts | 287° |
| 2026-04-27 12:14 | 54.50897 | 96.76954 | 39049 ft | 415 kts | 287° |
| 2026-04-27 12:14 | 54.54259 | 96.57912 | 39053 ft | 416 kts | 287° |
| 2026-04-27 12:15 | 54.57592 | 96.38837 | 39060 ft | 417 kts | 286° |
| 2026-04-27 12:15 | 54.60897 | 96.19717 | 39060 ft | 416 kts | 285° |
| 2026-04-27 12:16 | 54.64171 | 96.00565 | 39063 ft | 416 kts | 285° |
| 2026-04-27 12:16 | 54.67388 | 95.81545 | 39064 ft | 414 kts | 285° |
| 2026-04-27 12:17 | 54.70590 | 95.62402 | 39065 ft | 415 kts | 285° |
| 2026-04-27 12:17 | 54.73765 | 95.43207 | 39061 ft | 415 kts | 284° |
| 2026-04-27 12:18 | 54.76896 | 95.24083 | 39067 ft | 413 kts | 284° |
| 2026-04-27 12:18 | 54.79991 | 95.04950 | 39065 ft | 412 kts | 283° |
| 2026-04-27 12:19 | 54.83056 | 94.85787 | 39062 ft | 412 kts | 283° |
| 2026-04-27 12:19 | 54.86070 | 94.66732 | 39068 ft | 412 kts | 283° |
| 2026-04-27 12:20 | 54.89075 | 94.47512 | 39064 ft | 412 kts | 283° |
| 2026-04-27 12:20 | 54.92049 | 94.28276 | 39069 ft | 411 kts | 282° |
| 2026-04-27 12:21 | 54.94988 | 94.09015 | 39079 ft | 413 kts | 282° |
| 2026-04-27 12:21 | 54.97907 | 93.89676 | 39076 ft | 413 kts | 282° |
| 2026-04-27 12:22 | 55.00805 | 93.70237 | 39074 ft | 419 kts | 282° |
| 2026-04-27 12:22 | 55.03704 | 93.50562 | 39080 ft | 419 kts | 282° |
| 2026-04-27 12:23 | 55.06570 | 93.30862 | 39092 ft | 419 kts | 281° |
| 2026-04-27 12:23 | 55.09370 | 93.11356 | 39089 ft | 418 kts | 282° |
| 2026-04-27 12:24 | 55.12208 | 92.91341 | 39095 ft | 430 kts | 281° |
| 2026-04-27 12:24 | 55.15058 | 92.71003 | 39105 ft | 429 kts | 281° |
| 2026-04-27 12:25 | 55.17842 | 92.50725 | 39116 ft | 428 kts | 279° |
| 2026-04-27 12:25 | 55.19627 | 92.30182 | 39124 ft | 427 kts | 276° |
| 2026-04-27 12:26 | 55.21119 | 92.09525 | 39132 ft | 429 kts | 271° |
| 2026-04-27 12:26 | 55.21681 | 91.88679 | 39135 ft | 428 kts | 271° |
| 2026-04-27 12:27 | 55.22351 | 91.67986 | 39135 ft | 428 kts | 271° |
| 2026-04-27 12:27 | 55.22988 | 91.47062 | 39137 ft | 430 kts | 271° |
| 2026-04-27 12:28 | 55.23589 | 91.26114 | 39138 ft | 430 kts | 271° |
| 2026-04-27 12:28 | 55.24154 | 91.05186 | 39142 ft | 427 kts | 271° |
| 2026-04-27 12:29 | 55.24883 | 90.75949 | 39136 ft | 427 kts | 270° |
| 2026-04-27 12:29 | 55.25632 | 90.43728 | 39149 ft | 425 kts | 270° |
| 2026-04-27 12:30 | 55.26023 | 90.23025 | 39155 ft | 425 kts | 270° |
| 2026-04-27 12:30 | 55.26405 | 90.02316 | 39149 ft | 425 kts | 270° |
| 2026-04-27 12:31 | 55.26756 | 89.81458 | 39145 ft | 429 kts | 269° |
| 2026-04-27 12:31 | 55.27070 | 89.60696 | 39141 ft | 429 kts | 269° |
| 2026-04-27 12:32 | 55.27351 | 89.39783 | 39146 ft | 429 kts | 269° |
| 2026-04-27 12:32 | 55.27595 | 89.18871 | 39149 ft | 429 kts | 269° |
| 2026-04-27 12:33 | 55.27804 | 88.97944 | 39148 ft | 429 kts | 269° |
| 2026-04-27 12:33 | 55.27978 | 88.77001 | 39154 ft | 430 kts | 268° |
| 2026-04-27 12:34 | 55.28116 | 88.56053 | 39158 ft | 429 kts | 268° |
| 2026-04-27 12:34 | 55.28217 | 88.35094 | 39157 ft | 429 kts | 268° |
| 2026-04-27 12:35 | 55.28283 | 88.14053 | 39155 ft | 431 kts | 268° |
| 2026-04-27 12:35 | 55.28313 | 87.93145 | 39156 ft | 431 kts | 268° |
| 2026-04-27 12:36 | 55.28307 | 87.72094 | 39166 ft | 432 kts | 268° |
| 2026-04-27 12:36 | 55.28265 | 87.51031 | 39153 ft | 432 kts | 267° |
| 2026-04-27 12:37 | 55.28186 | 87.29958 | 39166 ft | 432 kts | 267° |
| 2026-04-27 12:37 | 55.28071 | 87.08868 | 39167 ft | 433 kts | 267° |
| 2026-04-27 12:38 | 55.27920 | 86.87790 | 39159 ft | 433 kts | 267° |
| 2026-04-27 12:38 | 55.27732 | 86.66717 | 39166 ft | 433 kts | 267° |
| 2026-04-27 12:39 | 55.27508 | 86.45580 | 39163 ft | 431 kts | 267° |
| 2026-04-27 12:39 | 55.27388 | 86.35316 | 39157 ft | 414 kts | 267° |
| 2026-04-27 12:39 | 55.27262 | 86.25157 | 39166 ft | 419 kts | 266° |
| 2026-04-27 12:40 | 55.26772 | 86.04746 | 39157 ft | 418 kts | 263° |
| 2026-04-27 12:40 | 55.26484 | 85.99200 | 39157 ft | 418 kts | 264° |
| 2026-04-27 12:41 | 55.26246 | 85.94119 | 39157 ft | 418 kts | 264° |
| 2026-04-27 12:41 | 55.26010 | 85.89033 | 39157 ft | 418 kts | 264° |
| 2026-04-27 12:42 | 55.25770 | 85.83952 | 39157 ft | 418 kts | 263° |
| 2026-04-27 12:42 | 55.25525 | 85.78902 | 39090 ft | 419 kts | 263° |
| 2026-04-27 12:42 | 55.25400 | 85.76358 | 38970 ft | 419 kts | 263° |
| 2026-04-27 12:43 | 55.25274 | 85.73813 | 38788 ft | 419 kts | 263° |
| 2026-04-27 12:43 | 55.25148 | 85.71265 | 38496 ft | 419 kts | 263° |
| 2026-04-27 12:43 | 55.25021 | 85.68720 | 38139 ft | 419 kts | 263° |
| 2026-04-27 12:43 | 55.24893 | 85.66170 | 37753 ft | 420 kts | 263° |
| 2026-04-27 12:44 | 55.24765 | 85.63623 | 37382 ft | 420 kts | 263° |
| 2026-04-27 12:44 | 55.24635 | 85.61074 | 37012 ft | 420 kts | 263° |
| 2026-04-27 12:44 | 55.24506 | 85.58526 | 36674 ft | 420 kts | 262° |
| 2026-04-27 12:44 | 55.24376 | 85.55977 | 36317 ft | 419 kts | 262° |
| 2026-04-27 12:45 | 55.24247 | 85.53469 | 35972 ft | 419 kts | 262° |
| 2026-04-27 12:45 | 55.24117 | 85.50931 | 35625 ft | 418 kts | 262° |
| 2026-04-27 12:45 | 55.23986 | 85.48402 | 35275 ft | 417 kts | 262° |
| 2026-04-27 12:45 | 55.23856 | 85.45877 | 34926 ft | 416 kts | 262° |
| 2026-04-27 12:46 | 55.23725 | 85.43356 | 34572 ft | 415 kts | 262° |
| 2026-04-27 12:46 | 55.23594 | 85.40848 | 34209 ft | 414 kts | 261° |
| 2026-04-27 12:46 | 55.23463 | 85.38341 | 33782 ft | 413 kts | 261° |
| 2026-04-27 12:46 | 55.23332 | 85.35843 | 33354 ft | 411 kts | 261° |
| 2026-04-27 12:47 | 55.23200 | 85.33350 | 32925 ft | 410 kts | 261° |
| 2026-04-27 12:47 | 55.23069 | 85.30864 | 32515 ft | 409 kts | 261° |
| 2026-04-27 12:47 | 55.22937 | 85.28384 | 32100 ft | 408 kts | 261° |
| 2026-04-27 12:47 | 55.22805 | 85.25912 | 31701 ft | 407 kts | 260° |
| 2026-04-27 12:48 | 55.22673 | 85.23448 | 31301 ft | 406 kts | 260° |
| 2026-04-27 12:48 | 55.22541 | 85.20988 | 30908 ft | 405 kts | 260° |
| 2026-04-27 12:48 | 55.22409 | 85.18534 | 30520 ft | 404 kts | 259° |
| 2026-04-27 12:48 | 55.22278 | 85.16118 | 30121 ft | 403 kts | 259° |
| 2026-04-27 12:49 | 55.22145 | 85.13678 | 29666 ft | 402 kts | 259° |
| 2026-04-27 12:49 | 55.22011 | 85.11243 | 29216 ft | 401 kts | 259° |
| 2026-04-27 12:49 | 55.21877 | 85.08817 | 28775 ft | 400 kts | 259° |
| 2026-04-27 12:49 | 55.21743 | 85.06392 | 28396 ft | 398 kts | 259° |
| 2026-04-27 12:50 | 55.21610 | 85.03991 | 28073 ft | 395 kts | 260° |
| 2026-04-27 12:50 | 55.21476 | 85.01605 | 27738 ft | 393 kts | 260° |
| 2026-04-27 12:50 | 55.21344 | 84.99233 | 27401 ft | 390 kts | 260° |
| 2026-04-27 12:50 | 55.21211 | 84.96875 | 27075 ft | 387 kts | 260° |
| 2026-04-27 12:51 | 55.21080 | 84.94537 | 26750 ft | 385 kts | 260° |
| 2026-04-27 12:51 | 55.20948 | 84.92208 | 26438 ft | 383 kts | 260° |
| 2026-04-27 12:51 | 55.20816 | 84.89899 | 26123 ft | 380 kts | 260° |
| 2026-04-27 12:51 | 55.20687 | 84.87634 | 25821 ft | 378 kts | 261° |
| 2026-04-27 12:52 | 55.20556 | 84.85354 | 25504 ft | 376 kts | 261° |
| 2026-04-27 12:52 | 55.20425 | 84.83079 | 25197 ft | 374 kts | 261° |
| 2026-04-27 12:52 | 55.20295 | 84.80822 | 24894 ft | 372 kts | 261° |
| 2026-04-27 12:52 | 55.20165 | 84.78578 | 24630 ft | 369 kts | 261° |
| 2026-04-27 12:53 | 55.19907 | 84.74150 | 24154 ft | 363 kts | 261° |
| 2026-04-27 12:53 | 55.19761 | 84.71970 | 23920 ft | 359 kts | 258° |
| 2026-04-27 12:53 | 55.19556 | 84.69832 | 23661 ft | 355 kts | 256° |
| 2026-04-27 12:54 | 55.19292 | 84.67735 | 23401 ft | 351 kts | 253° |
| 2026-04-27 12:54 | 55.18970 | 84.65685 | 23117 ft | 348 kts | 251° |
| 2026-04-27 12:54 | 55.18613 | 84.63674 | 22838 ft | 345 kts | 251° |
| 2026-04-27 12:54 | 55.18262 | 84.61675 | 22570 ft | 343 kts | 251° |
| 2026-04-27 12:55 | 55.17914 | 84.59676 | 22294 ft | 344 kts | 251° |
| 2026-04-27 12:55 | 55.17568 | 84.57675 | 22021 ft | 344 kts | 252° |
| 2026-04-27 12:55 | 55.17224 | 84.55675 | 21758 ft | 344 kts | 252° |
| 2026-04-27 12:55 | 55.16899 | 84.53665 | 21496 ft | 343 kts | 253° |
| 2026-04-27 12:56 | 55.16578 | 84.51662 | 21240 ft | 341 kts | 252° |
| 2026-04-27 12:56 | 55.16227 | 84.49686 | 20987 ft | 340 kts | 251° |
| 2026-04-27 12:56 | 55.15861 | 84.47721 | 20738 ft | 340 kts | 251° |
| 2026-04-27 12:56 | 55.15491 | 84.45761 | 20485 ft | 340 kts | 251° |
| 2026-04-27 12:57 | 55.15123 | 84.43794 | 20231 ft | 340 kts | 251° |
| 2026-04-27 12:57 | 55.14766 | 84.41855 | 19984 ft | 339 kts | 252° |
| 2026-04-27 12:57 | 55.14411 | 84.39895 | 19736 ft | 337 kts | 252° |
| 2026-04-27 12:57 | 55.14062 | 84.37944 | 19492 ft | 336 kts | 252° |
| 2026-04-27 12:58 | 55.13720 | 84.35999 | 19250 ft | 335 kts | 253° |
| 2026-04-27 12:58 | 55.13380 | 84.34053 | 19037 ft | 334 kts | 253° |
| 2026-04-27 12:58 | 55.13044 | 84.32110 | 18832 ft | 335 kts | 253° |
| 2026-04-27 12:58 | 55.12708 | 84.30158 | 18648 ft | 336 kts | 253° |
| 2026-04-27 12:59 | 55.12370 | 84.28196 | 18455 ft | 337 kts | 253° |
| 2026-04-27 12:59 | 55.12032 | 84.26234 | 18233 ft | 337 kts | 253° |
| 2026-04-27 12:59 | 55.11695 | 84.24276 | 18013 ft | 336 kts | 253° |
| 2026-04-27 12:59 | 55.11359 | 84.22326 | 17792 ft | 334 kts | 253° |
| 2026-04-27 13:00 | 55.11025 | 84.20389 | 17581 ft | 332 kts | 253° |
| 2026-04-27 13:00 | 55.10692 | 84.18459 | 17363 ft | 331 kts | 253° |
| 2026-04-27 13:00 | 55.10359 | 84.16538 | 17147 ft | 331 kts | 253° |
| 2026-04-27 13:00 | 55.10031 | 84.14641 | 16887 ft | 330 kts | 253° |
| 2026-04-27 13:01 | 55.09699 | 84.12726 | 16619 ft | 329 kts | 253° |
| 2026-04-27 13:01 | 55.09368 | 84.10817 | 16345 ft | 327 kts | 253° |
| 2026-04-27 13:01 | 55.09038 | 84.08920 | 16086 ft | 326 kts | 253° |
| 2026-04-27 13:01 | 55.08709 | 84.07029 | 15816 ft | 324 kts | 253° |
| 2026-04-27 13:02 | 55.08383 | 84.05148 | 15549 ft | 323 kts | 254° |
| 2026-04-27 13:02 | 55.08104 | 84.03255 | 15285 ft | 322 kts | 258° |
| 2026-04-27 13:02 | 55.07902 | 84.01359 | 15034 ft | 322 kts | 261° |
| 2026-04-27 13:02 | 55.07768 | 83.99418 | 14776 ft | 321 kts | 264° |
| 2026-04-27 13:03 | 55.07657 | 83.97479 | 14520 ft | 320 kts | 264° |
| 2026-04-27 13:03 | 55.07544 | 83.95548 | 14261 ft | 319 kts | 264° |
| 2026-04-27 13:03 | 55.07430 | 83.93627 | 14010 ft | 318 kts | 264° |
| 2026-04-27 13:03 | 55.07314 | 83.91712 | 13723 ft | 317 kts | 264° |
| 2026-04-27 13:04 | 55.07198 | 83.89801 | 13436 ft | 316 kts | 264° |
| 2026-04-27 13:04 | 55.07081 | 83.87900 | 13157 ft | 315 kts | 264° |
| 2026-04-27 13:04 | 55.06964 | 83.85998 | 12883 ft | 316 kts | 264° |
| 2026-04-27 13:04 | 55.06845 | 83.84088 | 12603 ft | 317 kts | 264° |
| 2026-04-27 13:05 | 55.06726 | 83.82179 | 12318 ft | 316 kts | 264° |
| 2026-04-27 13:05 | 55.06607 | 83.80273 | 12058 ft | 316 kts | 264° |
| 2026-04-27 13:05 | 55.06490 | 83.78399 | 11791 ft | 315 kts | 264° |
| 2026-04-27 13:05 | 55.06371 | 83.76504 | 11524 ft | 314 kts | 264° |
| 2026-04-27 13:06 | 55.06252 | 83.74614 | 11251 ft | 313 kts | 264° |
| 2026-04-27 13:06 | 55.06133 | 83.72724 | 10989 ft | 313 kts | 264° |
| 2026-04-27 13:06 | 55.06013 | 83.70836 | 10731 ft | 314 kts | 264° |
| 2026-04-27 13:06 | 55.05893 | 83.68942 | 10473 ft | 313 kts | 264° |
| 2026-04-27 13:07 | 55.05774 | 83.67054 | 10215 ft | 313 kts | 264° |
| 2026-04-27 13:07 | 55.05654 | 83.65172 | 10008 ft | 311 kts | 264° |
| 2026-04-27 13:07 | 55.05536 | 83.63317 | 9924 ft | 304 kts | 264° |
| 2026-04-27 13:07 | 55.05420 | 83.61506 | 9857 ft | 297 kts | 264° |
| 2026-04-27 13:08 | 55.05306 | 83.59734 | 9740 ft | 292 kts | 264° |
| 2026-04-27 13:08 | 55.05232 | 83.58574 | 9621 ft | 290 kts | 264° |
| 2026-04-27 13:08 | 55.05120 | 83.56830 | 9431 ft | 288 kts | 264° |
| 2026-04-27 13:08 | 55.05009 | 83.55105 | 9329 ft | 286 kts | 264° |
| 2026-04-27 13:09 | 55.04897 | 83.53373 | 9267 ft | 289 kts | 264° |
| 2026-04-27 13:09 | 55.04748 | 83.51060 | 9177 ft | 290 kts | 264° |
| 2026-04-27 13:09 | 55.04671 | 83.49878 | 9131 ft | 290 kts | 264° |
| 2026-04-27 13:09 | 55.04558 | 83.48136 | 9065 ft | 289 kts | 264° |
| 2026-04-27 13:10 | 55.04444 | 83.46391 | 8994 ft | 289 kts | 264° |
| 2026-04-27 13:10 | 55.04333 | 83.44682 | 8949 ft | 286 kts | 264° |
| 2026-04-27 13:10 | 55.04220 | 83.42969 | 8912 ft | 282 kts | 264° |
| 2026-04-27 13:10 | 55.04109 | 83.41283 | 8858 ft | 277 kts | 264° |
| 2026-04-27 13:11 | 55.04001 | 83.39632 | 8805 ft | 271 kts | 264° |
| 2026-04-27 13:11 | 55.03894 | 83.38015 | 8689 ft | 267 kts | 264° |
| 2026-04-27 13:11 | 55.03788 | 83.36411 | 8524 ft | 265 kts | 264° |
| 2026-04-27 13:11 | 55.03682 | 83.34814 | 8303 ft | 265 kts | 264° |
| 2026-04-27 13:12 | 55.03567 | 83.33219 | 8090 ft | 265 kts | 262° |
| 2026-04-27 13:12 | 55.03386 | 83.31648 | 7886 ft | 264 kts | 258° |
| 2026-04-27 13:12 | 55.03178 | 83.30109 | 7695 ft | 263 kts | 258° |
| 2026-04-27 13:12 | 55.02970 | 83.28560 | 7508 ft | 262 kts | 258° |
| 2026-04-27 13:13 | 55.02766 | 83.27014 | 7294 ft | 262 kts | 258° |
| 2026-04-27 13:13 | 55.02563 | 83.25467 | 7096 ft | 262 kts | 258° |
| 2026-04-27 13:13 | 55.02360 | 83.23919 | 6898 ft | 262 kts | 258° |
| 2026-04-27 13:13 | 55.02158 | 83.22375 | 6694 ft | 261 kts | 258° |
| 2026-04-27 13:14 | 55.01956 | 83.20831 | 6489 ft | 261 kts | 258° |
| 2026-04-27 13:14 | 55.01755 | 83.19291 | 6271 ft | 261 kts | 258° |
| 2026-04-27 13:14 | 55.01554 | 83.17759 | 6146 ft | 257 kts | 258° |
| 2026-04-27 13:14 | 55.01355 | 83.16257 | 6087 ft | 251 kts | 258° |
| 2026-04-27 13:15 | 55.01162 | 83.14793 | 6043 ft | 245 kts | 258° |
| 2026-04-27 13:15 | 55.00973 | 83.13365 | 5986 ft | 239 kts | 258° |
| 2026-04-27 13:15 | 55.00787 | 83.11968 | 5928 ft | 234 kts | 258° |
| 2026-04-27 13:15 | 55.00606 | 83.10603 | 5881 ft | 228 kts | 258° |
| 2026-04-27 13:16 | 55.00430 | 83.09271 | 5796 ft | 224 kts | 258° |
| 2026-04-27 13:16 | 55.00255 | 83.07951 | 5645 ft | 223 kts | 258° |
| 2026-04-27 13:16 | 55.00082 | 83.06649 | 5453 ft | 224 kts | 258° |
| 2026-04-27 13:16 | 54.99907 | 83.05323 | 5265 ft | 225 kts | 258° |
| 2026-04-27 13:17 | 54.99730 | 83.03991 | 5072 ft | 226 kts | 258° |
| 2026-04-27 13:17 | 54.99553 | 83.02661 | 4879 ft | 226 kts | 258° |
| 2026-04-27 13:17 | 54.99376 | 83.01330 | 4686 ft | 225 kts | 258° |
| 2026-04-27 13:17 | 54.99199 | 83.00000 | 4478 ft | 225 kts | 258° |
| 2026-04-27 13:18 | 54.99033 | 82.98670 | 4290 ft | 224 kts | 264° |
| 2026-04-27 13:18 | 54.99018 | 82.97324 | 4087 ft | 222 kts | 279° |
| 2026-04-27 13:18 | 54.99224 | 82.96040 | 3893 ft | 220 kts | 295° |
| 2026-04-27 13:18 | 54.99629 | 82.94914 | 3672 ft | 220 kts | 309° |
| 2026-04-27 13:19 | 55.00134 | 82.93908 | 3474 ft | 221 kts | 311° |
| 2026-04-27 13:19 | 55.00650 | 82.92909 | 3253 ft | 222 kts | 311° |
| 2026-04-27 13:19 | 55.01167 | 82.91910 | 3031 ft | 223 kts | 311° |
| 2026-04-27 13:19 | 55.01463 | 82.91339 | 2914 ft | 222 kts | 311° |
| 2026-04-27 13:20 | 55.01721 | 82.90840 | 2809 ft | 221 kts | 311° |
| 2026-04-27 13:20 | 55.01977 | 82.90343 | 2688 ft | 220 kts | 311° |
| 2026-04-27 13:20 | 55.02233 | 82.89845 | 2556 ft | 220 kts | 311° |
| 2026-04-27 13:20 | 55.02486 | 82.89345 | 2422 ft | 220 kts | 309° |
| 2026-04-27 13:21 | 55.02718 | 82.88816 | 2295 ft | 219 kts | 301° |
| 2026-04-27 13:21 | 55.02903 | 82.88239 | 2207 ft | 216 kts | 292° |
| 2026-04-27 13:21 | 55.03031 | 82.87630 | 2156 ft | 212 kts | 285° |
| 2026-04-27 13:21 | 55.03107 | 82.87008 | 2113 ft | 208 kts | 277° |
| 2026-04-27 13:22 | 55.03133 | 82.86384 | 2080 ft | 205 kts | 270° |
| 2026-04-27 13:22 | 55.03111 | 82.85773 | 2044 ft | 201 kts | 264° |
| 2026-04-27 13:22 | 55.03059 | 82.85177 | 2023 ft | 197 kts | 262° |
| 2026-04-27 13:22 | 55.03002 | 82.84596 | 1985 ft | 193 kts | 263° |
| 2026-04-27 13:23 | 55.02947 | 82.84033 | 1967 ft | 189 kts | 263° |
| 2026-04-27 13:23 | 55.02894 | 82.83479 | 1976 ft | 182 kts | 263° |
| 2026-04-27 13:23 | 55.02844 | 82.82944 | 1975 ft | 176 kts | 263° |
| 2026-04-27 13:23 | 55.02795 | 82.82424 | 1939 ft | 171 kts | 263° |
| 2026-04-27 13:24 | 55.02749 | 82.81916 | 1916 ft | 169 kts | 264° |
| 2026-04-27 13:24 | 55.02703 | 82.81407 | 1898 ft | 170 kts | 264° |
| 2026-04-27 13:24 | 55.02658 | 82.80902 | 1891 ft | 167 kts | 264° |
| 2026-04-27 13:24 | 55.02615 | 82.80410 | 1862 ft | 161 kts | 263° |
| 2026-04-27 13:25 | 55.02573 | 82.79932 | 1806 ft | 158 kts | 263° |
| 2026-04-27 13:25 | 55.02532 | 82.79463 | 1746 ft | 156 kts | 263° |
| 2026-04-27 13:25 | 55.02491 | 82.78999 | 1681 ft | 154 kts | 263° |
| 2026-04-27 13:25 | 55.02452 | 82.78545 | 1620 ft | 154 kts | 263° |
| 2026-04-27 13:26 | 55.02411 | 82.78081 | 1561 ft | 156 kts | 263° |
| 2026-04-27 13:26 | 55.02370 | 82.77609 | 1496 ft | 159 kts | 263° |
| 2026-04-27 13:26 | 55.02328 | 82.77129 | 1447 ft | 161 kts | 263° |
| 2026-04-27 13:26 | 55.02286 | 82.76645 | 1391 ft | 163 kts | 263° |
| 2026-04-27 13:27 | 55.02244 | 82.76155 | 1339 ft | 164 kts | 263° |
| 2026-04-27 13:27 | 55.02201 | 82.75663 | 1283 ft | 164 kts | 263° |
| 2026-04-27 13:27 | 55.02157 | 82.75168 | 1219 ft | 165 kts | 263° |
| 2026-04-27 13:27 | 55.02114 | 82.74680 | 1161 ft | 165 kts | 263° |
| 2026-04-27 13:28 | 55.02070 | 82.74184 | 1103 ft | 166 kts | 263° |
| 2026-04-27 13:28 | 55.02026 | 82.73684 | 1054 ft | 167 kts | 262° |
| 2026-04-27 13:28 | 55.01981 | 82.73186 | 999 ft | 165 kts | 263° |
| 2026-04-27 13:28 | 55.01937 | 82.72692 | 935 ft | 166 kts | 262° |
| 2026-04-27 13:29 | 55.01829 | 82.71479 | 812 ft | 168 kts | 262° |
| 2026-04-27 13:29 | 55.01736 | 82.70450 | 675 ft | 168 kts | 263° |
| 2026-04-27 13:29 | 55.01644 | 82.69458 | 595 ft | 160 kts | 262° |
| 2026-04-27 13:29 | 55.01554 | 82.68546 | 528 ft | 147 kts | 262° |
| 2026-04-27 13:30 | 55.01471 | 82.67690 | 408 ft | 139 kts | 263° |
| 2026-04-27 13:30 | 55.01405 | 82.66884 | 377 ft | 126 kts | 263° |
| 2026-04-27 13:30 | 55.01334 | 82.65959 | 375 ft | 83 kts | 262° |
| 2026-04-27 13:30 | 55.01301 | 82.65543 | 375 ft | 59 kts | 260° |
| 2026-04-27 13:31 | 55.01256 | 82.65205 | 375 ft | 55 kts | 260° |
| 2026-04-27 13:31 | 55.01225 | 82.65054 | 374 ft | 1 kts | 203° |
| 2026-04-27 13:31 | 55.01214 | 82.65052 | 374 ft | 5 kts | 184° |
| 2026-04-27 13:31 | 55.01202 | 82.65053 | 374 ft | 2 kts | 176° |
| 2026-04-27 13:32 | 55.01178 | 82.65058 | 374 ft | 13 kts | 172° |
| 2026-04-27 13:32 | 55.01127 | 82.65071 | 375 ft | 16 kts | 171° |
| 2026-04-27 13:32 | 55.01067 | 82.65087 | 375 ft | 19 kts | 171° |
| 2026-04-27 13:32 | 55.01000 | 82.65105 | 375 ft | 20 kts | 171° |
| 2026-04-27 13:33 | 55.00929 | 82.65124 | 375 ft | 21 kts | 171° |
| 2026-04-27 13:33 | 55.00880 | 82.65150 | 375 ft | 0 kts | 128° |
| 2026-04-27 13:33 | 55.00878 | 82.65165 | 375 ft | 7 kts | 101° |
| 2026-04-27 13:34 | 55.00881 | 82.65220 | 375 ft | 11 kts | 82° |
| 2026-04-27 13:34 | 55.00886 | 82.65296 | 375 ft | 14 kts | 82° |
| 2026-04-27 13:34 | 55.00892 | 82.65384 | 375 ft | 15 kts | 81° |
| 2026-04-27 13:34 | 55.00901 | 82.65481 | 375 ft | 17 kts | 81° |
| 2026-04-27 13:35 | 55.00911 | 82.65587 | 375 ft | 18 kts | 81° |
| 2026-04-27 13:35 | 55.00921 | 82.65701 | 375 ft | 20 kts | 81° |
| 2026-04-27 13:35 | 55.00932 | 82.65822 | 375 ft | 21 kts | 81° |
| 2026-04-27 13:35 | 55.00944 | 82.65951 | 375 ft | 22 kts | 81° |
| 2026-04-27 13:36 | 55.00957 | 82.66085 | 375 ft | 23 kts | 80° |
| 2026-04-27 13:36 | 55.00969 | 82.66227 | 375 ft | 24 kts | 79° |
| 2026-04-27 13:36 | 55.01014 | 82.66326 | 375 ft | 19 kts | 39° |
| 2026-04-27 13:36 | 55.01035 | 82.66430 | 375 ft | 18 kts | 80° |
| 2026-04-27 13:37 | 55.01056 | 82.66533 | 375 ft | 18 kts | 75° |
| 2026-04-27 13:37 | 55.01079 | 82.66640 | 375 ft | 19 kts | 67° |
| 2026-04-27 13:37 | 55.01086 | 82.66722 | 375 ft | 9 kts | 124° |
| 2026-04-27 13:37 | 55.01058 | 82.66749 | 375 ft | 10 kts | 165° |
| 2026-04-27 13:38 | 55.01034 | 82.66756 | 375 ft | 0 kts | 176° |